Time;durP1;ratioP1;P1;durP2;ratioP2;P2;SDS_P1;SDS_P2;PMS_P1;PMS_P2;Temp;Humidity;BMP_temperature;BMP_pressure;BME280_temperature;BME280_humidity;BME280_pressure;Samples;Min_cycle;Max_cycle;Signal;HPM_P1;HPM_P2
2021/10/23 00:04:02;;;;;;;3.40;2.10;;;;;;;5.83;81.17;100046.35;229287;1196;138859;-76
2021/10/23 00:09:04;;;;;;;1.60;1.20;;;;;;;5.82;81.18;100052.06;229959;1196;140449;-75
2021/10/23 00:14:05;;;;;;;1.70;1.30;;;;;;;5.92;80.66;100053.27;230018;1196;139671;-75
2021/10/23 00:19:08;;;;;;;2.40;1.60;;;;;;;5.99;79.99;100062.96;230092;1196;138572;-73
2021/10/23 00:24:09;;;;;;;1.80;1.50;;;;;;;6.00;79.82;100074.82;230187;1196;140805;-74
2021/10/23 00:29:11;;;;;;;1.40;1.10;;;;;;;5.99;80.34;100089.56;229282;1196;139031;-74
2021/10/23 00:34:13;;;;;;;2.80;1.70;;;;;;;6.00;79.79;100101.40;229769;1195;138333;-74
2021/10/23 00:39:15;;;;;;;1.50;1.10;;;;;;;5.96;79.66;100106.14;230198;1189;138641;-75
2021/10/23 00:44:31;;;;;;;2.00;1.20;;;;;;;5.95;79.87;100111.27;229389;1196;139619;-75
2021/10/23 00:49:35;;;;;;;2.30;1.60;;;;;;;5.94;79.82;100117.83;229572;1196;138991;-75
2021/10/23 00:54:38;;;;;;;1.60;1.50;;;;;;;5.96;79.68;100119.72;230115;1196;138460;-73
2021/10/23 00:59:40;;;;;;;2.50;1.70;;;;;;;5.93;79.84;100120.16;230108;1195;138499;-76
2021/10/23 01:04:42;;;;;;;1.90;1.40;;;;;;;5.91;79.74;100132.89;230029;1196;138788;-74
2021/10/23 01:09:44;;;;;;;2.00;1.30;;;;;;;5.91;79.79;100127.46;230285;1196;138778;-77
2021/10/23 01:14:46;;;;;;;2.50;1.60;;;;;;;5.94;79.28;100112.91;230310;1180;138740;-76
2021/10/23 01:19:50;;;;;;;3.20;1.60;;;;;;;5.83;79.77;100119.81;232253;1182;138246;-72
2021/10/23 01:24:52;;;;;;;1.90;1.30;;;;;;;5.76;79.98;100114.42;229023;1196;138962;-74
2021/10/23 01:29:53;;;;;;;1.70;1.20;;;;;;;5.74;79.83;100121.98;230001;1196;139336;-71
2021/10/23 01:34:55;;;;;;;2.20;1.80;;;;;;;5.68;80.00;100127.30;228963;1200;138473;-73
2021/10/23 01:39:56;;;;;;;2.20;1.80;;;;;;;5.76;79.66;100126.29;228813;1196;138781;-72
2021/10/23 01:44:58;;;;;;;2.90;1.50;;;;;;;5.77;79.13;100134.43;229075;1196;139309;-74
2021/10/23 01:50:00;;;;;;;1.30;1.20;;;;;;;5.82;78.25;100144.67;229773;1196;138273;-73
2021/10/23 01:55:01;;;;;;;1.30;1.00;;;;;;;5.82;77.53;100153.11;229666;1196;138925;-73
2021/10/23 02:00:04;;;;;;;2.40;1.10;;;;;;;5.82;77.22;100156.95;229256;1196;138329;-72
2021/10/23 02:05:06;;;;;;;2.20;1.20;;;;;;;5.69;77.27;100177.59;229061;1196;139292;-72
2021/10/23 02:10:09;;;;;;;2.40;1.40;;;;;;;5.58;77.34;100194.88;229146;1197;139118;-72
2021/10/23 02:15:10;;;;;;;2.80;1.00;;;;;;;5.59;77.01;100192.54;229100;1196;139135;-73
2021/10/23 02:20:13;;;;;;;3.00;1.00;;;;;;;5.62;76.57;100190.14;228847;1196;138417;-72
2021/10/23 02:25:15;;;;;;;3.10;1.30;;;;;;;5.58;76.54;100198.60;228911;1196;138465;-74
2021/10/23 02:30:16;;;;;;;1.40;1.00;;;;;;;5.61;76.36;100204.83;229083;1195;139381;-72
2021/10/23 02:35:19;;;;;;;2.50;1.20;;;;;;;5.56;76.04;100207.61;230215;1196;138852;-73
2021/10/23 02:40:21;;;;;;;1.70;0.80;;;;;;;5.50;76.01;100211.31;229801;1189;138328;-73
2021/10/23 02:45:22;;;;;;;1.60;0.70;;;;;;;5.44;76.25;100211.81;229855;1196;138902;-73
2021/10/23 02:50:24;;;;;;;1.80;0.80;;;;;;;5.39;76.15;100218.98;229108;1198;138523;-70
2021/10/23 02:55:26;;;;;;;3.20;1.20;;;;;;;5.34;76.56;100225.84;229271;1196;138866;-71
2021/10/23 03:00:28;;;;;;;2.40;1.00;;;;;;;5.37;76.31;100234.20;229248;1196;139135;-71
2021/10/23 03:05:30;;;;;;;4.40;1.20;;;;;;;5.38;76.02;100244.55;228823;1196;141009;-73
2021/10/23 03:10:31;;;;;;;1.00;0.60;;;;;;;5.41;76.54;100251.16;229090;1196;139905;-69
2021/10/23 03:15:33;;;;;;;4.40;1.40;;;;;;;5.48;76.09;100256.54;229009;1196;138434;-72
2021/10/23 03:20:35;;;;;;;2.90;1.40;;;;;;;5.53;76.00;100258.44;228946;1196;138471;-72
2021/10/23 03:25:37;;;;;;;3.00;1.40;;;;;;;5.49;76.25;100257.02;228836;1196;138163;-72
2021/10/23 03:30:38;;;;;;;4.20;1.20;;;;;;;5.44;76.54;100252.50;229182;1195;138337;-71
2021/10/23 03:35:40;;;;;;;4.20;1.60;;;;;;;5.43;76.42;100257.43;229076;1196;138310;-71
2021/10/23 03:40:42;;;;;;;2.00;0.90;;;;;;;5.42;76.58;100265.59;228950;1196;138387;-71
2021/10/23 03:45:44;;;;;;;4.40;1.20;;;;;;;5.39;76.79;100270.55;228886;1196;138732;-72
2021/10/23 03:50:45;;;;;;;3.70;1.50;;;;;;;5.33;76.72;100271.19;229772;1196;139389;-72
2021/10/23 03:55:47;;;;;;;2.50;1.10;;;;;;;5.33;76.58;100273.99;229444;1196;140543;-72
2021/10/23 04:00:48;;;;;;;3.30;1.10;;;;;;;5.31;76.64;100274.52;229116;1196;139613;-72
2021/10/23 04:05:50;;;;;;;4.20;1.10;;;;;;;5.25;76.58;100285.16;229434;1195;138341;-71
2021/10/23 04:10:52;;;;;;;3.80;1.60;;;;;;;5.23;76.62;100291.95;228984;1196;139654;-72
2021/10/23 04:15:53;;;;;;;2.90;0.90;;;;;;;5.24;76.50;100296.25;230418;1196;138692;-72
2021/10/23 04:20:55;;;;;;;2.60;1.20;;;;;;;5.18;76.72;100305.42;229712;1196;139126;-71
2021/10/23 04:25:56;;;;;;;2.10;1.20;;;;;;;5.22;76.96;100308.05;230418;1196;138619;-73
2021/10/23 04:30:58;;;;;;;5.00;1.50;;;;;;;5.24;76.94;100318.73;229287;1196;138542;-72
2021/10/23 04:35:59;;;;;;;3.30;1.50;;;;;;;5.27;76.85;100326.73;229118;1200;138621;-71
2021/10/23 04:41:01;;;;;;;3.10;1.60;;;;;;;5.33;76.71;100323.79;229412;1199;139444;-72
2021/10/23 04:46:03;;;;;;;3.00;1.70;;;;;;;5.37;76.58;100335.16;229017;1196;138641;-72
2021/10/23 04:51:04;;;;;;;3.30;1.20;;;;;;;5.37;76.78;100345.10;229472;1196;138251;-73
2021/10/23 04:56:06;;;;;;;4.00;1.70;;;;;;;5.46;76.34;100351.63;229225;1196;139051;-70
2021/10/23 05:01:08;;;;;;;5.10;1.30;;;;;;;5.48;76.15;100354.90;228843;1189;138262;-71
2021/10/23 05:06:09;;;;;;;4.30;1.00;;;;;;;5.47;76.47;100360.63;229120;1196;138427;-70
2021/10/23 05:11:11;;;;;;;4.10;1.70;;;;;;;5.50;76.41;100370.48;229169;1196;139077;-74
2021/10/23 05:16:13;;;;;;;5.70;1.80;;;;;;;5.53;76.33;100381.96;229641;1197;138347;-72
2021/10/23 05:21:18;;;;;;;5.40;1.80;;;;;;;5.55;76.26;100385.29;229173;1196;138479;-75
2021/10/23 05:26:20;;;;;;;4.20;1.60;;;;;;;5.57;76.41;100390.86;229100;1200;140966;-72
2021/10/23 05:31:22;;;;;;;4.70;1.50;;;;;;;5.57;76.30;100395.23;229045;1196;138256;-75
2021/10/23 05:36:23;;;;;;;5.70;1.70;;;;;;;5.60;76.35;100407.05;230037;1188;139140;-73
2021/10/23 05:41:25;;;;;;;4.70;1.90;;;;;;;5.59;76.59;100408.94;229726;1196;138687;-74
2021/10/23 05:46:26;;;;;;;4.40;1.70;;;;;;;5.58;76.88;100417.90;229753;1196;138086;-75
2021/10/23 05:51:28;;;;;;;6.10;1.60;;;;;;;5.62;76.79;100421.21;229155;1196;139500;-72
2021/10/23 05:56:29;;;;;;;8.50;1.90;;;;;;;5.64;76.63;100425.10;229803;1197;138736;-72
2021/10/23 06:01:31;;;;;;;4.80;1.60;;;;;;;5.61;77.19;100434.78;229655;1196;138053;-74
2021/10/23 06:06:33;;;;;;;4.80;1.90;;;;;;;5.64;77.41;100439.61;229627;1196;139094;-74
2021/10/23 06:11:35;;;;;;;4.60;1.90;;;;;;;5.62;77.75;100446.73;229919;1196;138010;-74
2021/10/23 06:16:37;;;;;;;5.00;2.10;;;;;;;5.60;78.56;100458.16;229995;1196;138398;-74
2021/10/23 06:21:38;;;;;;;5.70;1.90;;;;;;;5.58;78.96;100460.37;229646;1196;139578;-73
2021/10/23 06:26:40;;;;;;;5.20;1.90;;;;;;;5.58;79.12;100471.55;229805;1186;138604;-72
2021/10/23 06:31:41;;;;;;;4.50;1.80;;;;;;;5.57;79.52;100474.30;229701;1196;138803;-74
2021/10/23 06:36:43;;;;;;;9.60;2.70;;;;;;;5.61;79.28;100479.87;229137;1196;138354;-73
2021/10/23 06:41:45;;;;;;;5.40;2.20;;;;;;;5.58;79.75;100482.05;228873;1196;138646;-72
2021/10/23 06:46:47;;;;;;;4.70;2.10;;;;;;;5.58;79.64;100490.45;229744;1196;139281;-74
2021/10/23 06:51:48;;;;;;;7.40;2.40;;;;;;;5.67;79.32;100493.09;229856;1196;138718;-72
2021/10/23 06:56:50;;;;;;;3.20;1.70;;;;;;;5.67;79.24;100496.60;229902;1190;139240;-72
2021/10/23 07:01:52;;;;;;;3.90;1.80;;;;;;;5.72;78.66;100501.61;228957;1203;138652;-73
2021/10/23 07:06:53;;;;;;;4.20;1.80;;;;;;;5.80;77.84;100501.30;228939;1199;138784;-73
2021/10/23 07:11:55;;;;;;;7.00;2.10;;;;;;;5.82;78.12;100512.74;229825;1197;138179;-74
2021/10/23 07:16:57;;;;;;;4.80;1.90;;;;;;;5.81;78.14;100515.27;230216;1189;138238;-75
2021/10/23 07:21:59;;;;;;;8.20;2.40;;;;;;;5.83;78.42;100519.99;230046;1196;138596;-73
2021/10/23 07:27:00;;;;;;;7.00;2.30;;;;;;;5.82;78.33;100529.84;229591;1196;138018;-75
2021/10/23 07:32:03;;;;;;;8.20;2.00;;;;;;;5.81;78.05;100542.17;229982;1196;138862;-74
2021/10/23 07:37:04;;;;;;;4.00;2.10;;;;;;;5.86;77.76;100543.36;230998;1195;138677;-73
2021/10/23 07:42:08;;;;;;;6.20;2.00;;;;;;;5.84;77.50;100556.27;230723;1196;138933;-72
2021/10/23 07:47:12;;;;;;;6.10;2.00;;;;;;;5.87;77.72;100556.59;231061;1196;138641;-75
2021/10/23 07:52:15;;;;;;;5.20;1.70;;;;;;;5.92;77.38;100564.25;230211;1195;138863;-73
2021/10/23 07:57:17;;;;;;;7.80;1.70;;;;;;;5.92;77.13;100562.98;230888;1196;138656;-76
2021/10/23 08:02:19;;;;;;;7.00;1.90;;;;;;;5.96;77.58;100567.63;230011;1190;138681;-76
2021/10/23 08:07:21;;;;;;;6.70;2.70;;;;;;;5.99;77.12;100562.48;229682;1196;139260;-75
2021/10/23 08:12:23;;;;;;;6.50;2.20;;;;;;;6.03;76.90;100562.39;229896;1196;138545;-74
2021/10/23 08:17:25;;;;;;;8.80;2.40;;;;;;;6.10;76.37;100565.10;230151;1196;139341;-75
2021/10/23 08:22:26;;;;;;;4.80;1.30;;;;;;;6.14;75.93;100568.51;229733;1196;138296;-75
2021/10/23 08:27:28;;;;;;;3.50;1.90;;;;;;;6.21;75.11;100585.96;229658;1196;138478;-75
2021/10/23 08:32:30;;;;;;;4.50;1.10;;;;;;;6.26;75.09;100584.85;229719;1196;139093;-72
2021/10/23 08:37:31;;;;;;;11.20;2.50;;;;;;;6.28;74.71;100598.17;229337;1196;138412;-72
2021/10/23 08:42:34;;;;;;;6.60;2.20;;;;;;;6.30;74.73;100610.13;228992;1196;138297;-72
2021/10/23 08:47:40;;;;;;;5.40;2.00;;;;;;;6.34;75.35;100618.19;229764;1196;139166;-74
2021/10/23 08:52:45;;;;;;;5.90;2.70;;;;;;;6.35;74.96;100622.65;229455;1196;139587;-71
2021/10/23 08:57:47;;;;;;;4.70;2.10;;;;;;;6.34;75.15;100630.66;229735;1196;139597;-74
2021/10/23 09:02:49;;;;;;;5.60;1.70;;;;;;;6.34;74.83;100627.23;229902;1196;139349;-73
2021/10/23 09:07:52;;;;;;;5.40;2.00;;;;;;;6.37;74.33;100633.85;229540;1196;138539;-74
2021/10/23 09:13:06;;;;;;;4.10;1.50;;;;;;;6.44;74.19;100643.63;229291;1196;139223;-73
2021/10/23 09:18:09;;;;;;;10.50;2.90;;;;;;;6.46;73.73;100658.02;229826;1196;139859;-72
2021/10/23 09:23:17;;;;;;;6.10;1.90;;;;;;;6.52;74.00;100664.87;229815;1196;139507;-72
2021/10/23 09:28:31;;;;;;;9.30;3.60;;;;;;;6.55;73.63;100673.20;228896;1196;138728;-75
2021/10/23 09:33:33;;;;;;;9.40;3.10;;;;;;;6.57;73.42;100673.98;229304;1197;138304;-74
2021/10/23 09:38:34;;;;;;;7.90;2.70;;;;;;;6.66;73.16;100674.66;229012;1196;138773;-73
2021/10/23 09:43:36;;;;;;;6.60;2.40;;;;;;;6.73;72.57;100676.77;229165;1196;139289;-74
2021/10/23 09:48:41;;;;;;;7.30;2.80;;;;;;;6.79;72.32;100675.73;228930;1196;138502;-75
2021/10/23 09:53:48;;;;;;;7.60;2.10;;;;;;;6.82;71.93;100690.70;229218;1196;138466;-72
2021/10/23 09:59:03;;;;;;;7.80;2.50;;;;;;;6.81;72.00;100688.14;228928;1197;138419;-72
2021/10/23 10:04:09;;;;;;;7.90;2.70;;;;;;;6.93;72.09;100690.07;228721;1197;138892;-72
2021/10/23 10:09:21;;;;;;;5.30;1.80;;;;;;;7.01;71.88;100692.52;229129;1199;138818;-72
2021/10/23 10:14:28;;;;;;;7.70;2.60;;;;;;;7.02;70.87;100687.19;228947;1180;139142;-70
2021/10/23 10:19:30;;;;;;;4.50;1.50;;;;;;;7.07;71.30;100691.68;229336;1197;138199;-72
2021/10/23 10:24:38;;;;;;;5.80;2.10;;;;;;;7.02;70.95;100695.11;229096;1196;139396;-71
2021/10/23 10:29:56;;;;;;;8.80;3.00;;;;;;;7.02;71.37;100700.52;229395;1196;138636;-72
2021/10/23 10:45:50;;;;;;;6.80;2.30;;;;;;;6.93;71.68;100715.60;230132;1195;138645;-71
2021/10/23 10:50:53;;;;;;;8.80;2.30;;;;;;;6.95;71.49;100713.38;229257;1196;138673;-73
2021/10/23 10:56:05;;;;;;;6.10;2.50;;;;;;;7.08;71.45;100729.42;230104;1197;139700;-73
2021/10/23 11:01:34;;;;;;;9.10;2.90;;;;;;;7.15;70.74;100738.08;231278;1196;138258;-74
2021/10/23 11:06:38;;;;;;;8.70;4.10;;;;;;;7.17;71.03;100741.42;230259;1197;138773;-71
2021/10/23 11:11:49;;;;;;;7.80;2.90;;;;;;;7.19;71.19;100748.63;229888;1196;139242;-71
2021/10/23 11:16:54;;;;;;;9.70;2.30;;;;;;;7.26;70.60;100755.92;230096;1197;138669;-73
2021/10/23 11:21:57;;;;;;;4.10;1.60;;;;;;;7.18;70.47;100767.24;229707;1200;98579;-71
2021/10/23 11:26:59;;;;;;;9.00;2.90;;;;;;;7.13;71.61;100770.11;232582;1199;111235;-71
2021/10/23 11:32:01;;;;;;;6.40;2.40;;;;;;;6.94;74.46;100779.97;231716;1200;97957;-71
2021/10/23 11:37:11;;;;;;;6.30;2.40;;;;;;;6.77;76.04;100780.45;231353;1200;97768;-71
2021/10/23 11:42:22;;;;;;;8.80;2.60;;;;;;;6.86;75.08;100775.73;229065;1202;108701;-69
2021/10/23 11:47:29;;;;;;;10.60;2.70;;;;;;;6.86;73.34;100777.81;229461;1200;108628;-74
2021/10/23 11:52:32;;;;;;;8.10;2.30;;;;;;;6.90;72.77;100778.72;229281;1200;108124;-72
2021/10/23 11:57:36;;;;;;;12.00;4.50;;;;;;;6.86;72.46;100792.35;229620;1197;99007;-71
2021/10/23 12:02:48;;;;;;;7.80;3.00;;;;;;;6.90;73.58;100789.80;229625;1196;99030;-72
2021/10/23 12:08:29;;;;;;;8.90;3.40;;;;;;;6.92;73.21;100797.00;230368;1196;97700;-71
2021/10/23 12:13:42;;;;;;;4.60;2.30;;;;;;;6.93;73.20;100803.91;229354;1196;97744;-71
2021/10/23 12:18:46;;;;;;;7.10;4.40;;;;;;;6.98;73.19;100809.80;229472;1196;97993;-70
2021/10/23 12:23:55;;;;;;;6.80;2.60;;;;;;;7.09;72.33;100817.71;229719;1200;97733;-72
2021/10/23 12:29:04;;;;;;;10.00;3.10;;;;;;;7.08;73.05;100824.61;229519;1196;112368;-71
2021/10/23 12:34:06;;;;;;;8.10;4.50;;;;;;;6.93;75.37;100835.22;229397;1197;111620;-72
2021/10/23 12:39:28;;;;;;;9.60;3.50;;;;;;;6.78;75.70;100835.50;229634;1196;97736;-71
2021/10/23 12:44:30;;;;;;;10.90;3.60;;;;;;;6.97;74.77;100839.80;229754;1196;103397;-72
2021/10/23 12:49:32;;;;;;;7.90;3.40;;;;;;;7.75;73.36;100825.34;229319;1196;97726;-72
2021/10/23 12:54:33;;;;;;;9.30;3.80;;;;;;;9.29;67.73;100823.13;230067;1197;97670;-70
2021/10/23 12:59:35;;;;;;;11.30;4.30;;;;;;;9.66;65.24;100837.81;230470;1196;97582;-71
2021/10/23 13:04:36;;;;;;;10.80;4.10;;;;;;;8.52;68.72;100833.61;230025;1196;97684;-73
2021/10/23 13:09:38;;;;;;;5.50;3.10;;;;;;;7.97;69.74;100843.13;229793;1197;99015;-74
2021/10/23 13:14:40;;;;;;;5.80;2.20;;;;;;;7.75;69.88;100856.12;230463;1196;112202;-74
2021/10/23 13:19:42;;;;;;;7.70;2.70;;;;;;;7.80;69.93;100845.73;230668;1197;97700;-74
2021/10/23 13:24:44;;;;;;;7.80;2.50;;;;;;;7.85;69.81;100855.13;230960;1196;99037;-72
2021/10/23 13:29:45;;;;;;;12.20;3.00;;;;;;;7.86;69.44;100858.08;230260;1196;108607;-73
2021/10/23 13:34:48;;;;;;;7.40;2.20;;;;;;;7.83;69.06;100867.96;229807;1197;97627;-71
2021/10/23 13:39:50;;;;;;;4.40;2.20;;;;;;;7.91;68.43;100865.55;229840;1196;98627;-72
2021/10/23 13:44:52;;;;;;;7.10;2.70;;;;;;;7.82;69.44;100869.73;230548;1196;98067;-74
2021/10/23 13:49:53;;;;;;;8.50;3.10;;;;;;;7.66;69.81;100871.77;230365;1190;97660;-72
2021/10/23 13:54:56;;;;;;;7.90;3.00;;;;;;;7.53;70.64;100879.80;230325;1197;98143;-72
2021/10/23 13:59:58;;;;;;;10.00;3.00;;;;;;;7.53;70.29;100879.06;229974;1197;103255;-70
2021/10/23 14:05:01;;;;;;;6.70;2.30;;;;;;;7.49;71.62;100900.77;230330;1196;97666;-73
2021/10/23 14:10:04;;;;;;;6.10;2.50;;;;;;;7.15;75.73;100914.96;230439;1196;108518;-71
2021/10/23 14:15:07;;;;;;;5.50;2.10;;;;;;;6.87;79.12;100932.44;230139;1197;97628;-72
2021/10/23 14:20:09;;;;;;;4.20;1.90;;;;;;;6.28;82.84;100946.27;230482;1196;97711;-71
2021/10/23 14:25:11;;;;;;;2.90;1.70;;;;;;;5.97;84.20;100961.23;230872;1196;97727;-72
2021/10/23 14:30:14;;;;;;;3.10;1.60;;;;;;;5.87;83.66;100973.84;230930;1197;98561;-70
2021/10/23 14:35:16;;;;;;;4.30;1.90;;;;;;;5.91;83.84;100988.93;230837;1197;110728;-73
2021/10/23 14:40:17;;;;;;;5.10;2.00;;;;;;;5.98;83.93;101002.23;230262;1190;98811;-72
2021/10/23 14:45:19;;;;;;;6.80;2.10;;;;;;;6.10;84.30;101022.77;230404;1189;97864;-72
2021/10/23 14:50:21;;;;;;;3.70;1.60;;;;;;;5.99;83.44;101018.66;229919;1197;106942;-72
2021/10/23 14:55:22;;;;;;;2.20;1.40;;;;;;;5.95;83.72;101019.10;229953;1197;97630;-72
2021/10/23 15:00:24;;;;;;;2.90;1.40;;;;;;;6.09;83.57;101025.29;230442;1197;97669;-74
2021/10/23 15:05:26;;;;;;;3.40;1.60;;;;;;;5.92;83.32;101036.08;230717;1196;97680;-74
2021/10/23 15:10:29;;;;;;;4.00;1.80;;;;;;;5.86;84.00;101036.46;230312;1196;97635;-72
2021/10/23 15:15:30;;;;;;;1.70;1.30;;;;;;;5.74;84.17;101045.77;230684;1196;98592;-73
2021/10/23 15:20:33;;;;;;;2.70;1.00;;;;;;;5.53;84.14;101060.96;229652;1197;103092;-72
2021/10/23 15:25:35;;;;;;;2.30;1.20;;;;;;;5.45;84.18;101062.04;230309;1196;97635;-73
2021/10/23 15:30:37;;;;;;;1.10;0.70;;;;;;;5.43;84.11;101075.30;230383;1197;97655;-72
2021/10/23 15:35:41;;;;;;;2.40;1.20;;;;;;;5.56;83.77;101079.96;230443;1196;97666;-75
2021/10/23 15:41:02;;;;;;;3.10;1.50;;;;;;;5.56;83.84;101091.16;229627;1196;97728;-72
2021/10/23 15:46:04;;;;;;;3.10;1.10;;;;;;;5.43;84.70;101095.57;229913;1197;99073;-72
2021/10/23 15:51:07;;;;;;;3.10;1.50;;;;;;;5.47;85.01;101104.37;230154;1196;97629;-71
2021/10/23 15:56:08;;;;;;;4.90;2.30;;;;;;;5.54;84.56;101108.11;230220;1196;99049;-75
2021/10/23 16:01:10;;;;;;;3.70;2.80;;;;;;;5.62;84.00;101114.70;230432;1196;103138;-73
2021/10/23 16:06:11;;;;;;;5.10;3.10;;;;;;;5.65;84.89;101130.94;230751;1196;97601;-72
2021/10/23 16:11:13;;;;;;;5.90;2.80;;;;;;;5.62;85.22;101156.34;230228;1196;99034;-71
2021/10/23 16:16:15;;;;;;;4.50;2.80;;;;;;;5.63;85.45;101167.44;229275;1196;99027;-72
2021/10/23 16:21:17;;;;;;;3.10;2.30;;;;;;;5.47;85.61;101167.98;229367;1197;97749;-70
2021/10/23 16:26:18;;;;;;;4.80;3.00;;;;;;;5.48;85.54;101156.52;229631;1190;97972;-72
2021/10/23 16:31:20;;;;;;;4.60;3.20;;;;;;;5.36;85.77;101172.71;229511;1196;98068;-73
2021/10/23 16:36:22;;;;;;;7.80;6.00;;;;;;;5.38;86.23;101179.44;229274;1196;101769;-73
2021/10/23 16:41:24;;;;;;;17.60;11.60;;;;;;;5.46;86.31;101180.84;229829;1196;97641;-70
2021/10/23 16:46:25;;;;;;;11.00;6.50;;;;;;;5.55;86.24;101197.33;230368;1197;97644;-74
2021/10/23 16:51:27;;;;;;;8.10;5.30;;;;;;;5.45;85.62;101209.18;230087;1196;99037;-71
2021/10/23 16:56:33;;;;;;;5.00;3.90;;;;;;;5.41;85.47;101209.41;229604;1196;97675;-71
2021/10/23 17:01:34;;;;;;;12.60;7.30;;;;;;;5.45;84.58;101209.68;229810;1196;98563;-71
2021/10/23 17:06:36;;;;;;;11.00;6.30;;;;;;;5.40;84.55;101211.47;229622;1197;98252;-72
2021/10/23 17:11:38;;;;;;;5.30;3.50;;;;;;;5.23;84.86;101229.85;229571;1196;98951;-71
2021/10/23 17:16:40;;;;;;;4.20;3.00;;;;;;;5.20;85.33;101244.16;230368;1196;103126;-73
2021/10/23 17:21:43;;;;;;;6.30;4.20;;;;;;;5.29;84.94;101253.73;230490;1195;98565;-72
2021/10/23 17:26:44;;;;;;;7.10;4.30;;;;;;;5.30;85.06;101257.03;230495;1196;97724;-73
2021/10/23 17:31:46;;;;;;;6.40;4.40;;;;;;;5.25;85.14;101265.90;230591;1196;97619;-72
2021/10/23 17:36:48;;;;;;;11.30;8.90;;;;;;;5.22;85.34;101274.11;230498;1196;98699;-73
2021/10/23 17:41:50;;;;;;;6.10;5.40;;;;;;;5.37;84.67;101276.98;229979;1197;256634;-73
2021/10/23 17:46:52;;;;;;;6.20;3.40;;;;;;;5.30;84.49;101281.27;231226;1196;110550;-72
2021/10/23 17:51:54;;;;;;;4.70;3.50;;;;;;;5.31;84.35;101288.41;230910;1196;99913;-72
2021/10/23 17:56:56;;;;;;;4.80;3.20;;;;;;;5.35;84.05;101298.24;230540;1196;99014;-76
2021/10/23 18:01:58;;;;;;;4.20;2.90;;;;;;;5.36;83.72;101301.85;230482;1196;107572;-76
2021/10/23 18:06:59;;;;;;;4.30;2.60;;;;;;;5.20;84.08;101305.71;230908;1196;98564;-77
2021/10/23 18:12:01;;;;;;;4.60;3.20;;;;;;;5.13;84.44;101312.02;230369;1196;99097;-75
2021/10/23 18:17:23;;;;;;;7.10;5.20;;;;;;;5.10;84.41;101312.92;230564;1196;98597;-79
2021/10/23 18:22:25;;;;;;;5.60;5.00;;;;;;;5.04;84.57;101321.33;230452;1197;112167;-76
2021/10/23 18:27:26;;;;;;;7.70;4.60;;;;;;;4.95;84.60;101332.89;230932;1197;98091;-76
2021/10/23 18:32:28;;;;;;;6.50;4.00;;;;;;;4.95;84.50;101337.60;230588;1196;98006;-79
2021/10/23 18:37:30;;;;;;;6.50;4.40;;;;;;;4.92;84.94;101335.88;230512;1196;97649;-77
2021/10/23 18:42:31;;;;;;;5.70;4.00;;;;;;;4.95;85.08;101344.60;230540;1184;98025;-77
2021/10/23 18:47:33;;;;;;;6.20;3.60;;;;;;;5.01;84.74;101358.57;231137;1195;99012;-78
2021/10/23 18:52:35;;;;;;;7.20;5.10;;;;;;;4.97;84.59;101362.83;230765;1196;98542;-76
2021/10/23 18:57:40;;;;;;;4.80;3.90;;;;;;;4.89;84.77;101371.48;230504;1196;112102;-76
2021/10/23 19:02:42;;;;;;;6.00;4.60;;;;;;;4.89;84.91;101378.83;230602;1196;97640;-76
2021/10/23 19:07:44;;;;;;;6.90;4.20;;;;;;;4.77;85.05;101386.36;230683;1195;103346;-77
2021/10/23 19:12:46;;;;;;;7.20;4.30;;;;;;;4.69;85.26;101398.71;231069;1195;97598;-76
2021/10/23 19:17:48;;;;;;;6.00;4.60;;;;;;;4.63;85.47;101406.73;230603;1196;98163;-77
2021/10/23 19:22:50;;;;;;;5.20;4.60;;;;;;;4.55;85.80;101413.81;230424;1196;99005;-76
2021/10/23 19:27:52;;;;;;;5.70;4.60;;;;;;;4.50;85.92;101426.71;230638;1190;99015;-77
2021/10/23 19:32:55;;;;;;;7.10;5.50;;;;;;;4.37;86.13;101434.77;232092;1196;97605;-75
2021/10/23 19:37:57;;;;;;;6.20;5.10;;;;;;;4.39;86.42;101446.20;232990;1195;109847;-77
2021/10/23 19:43:04;;;;;;;6.80;5.20;;;;;;;4.37;86.39;101453.14;233438;1196;98585;-77
2021/10/23 19:48:06;;;;;;;7.40;5.80;;;;;;;4.27;86.36;101462.02;232122;1190;102123;-76
2021/10/23 19:53:08;;;;;;;8.10;5.30;;;;;;;4.20;86.83;101472.04;230878;1196;99078;-78
2021/10/23 19:58:09;;;;;;;6.00;4.90;;;;;;;4.22;86.93;101475.94;230461;1196;97680;-76
2021/10/23 20:03:11;;;;;;;6.90;4.70;;;;;;;4.28;87.15;101479.61;230482;1196;97738;-76
2021/10/23 20:08:13;;;;;;;6.20;4.60;;;;;;;4.36;86.78;101485.99;230682;1196;98481;-76
2021/10/23 20:13:15;;;;;;;7.80;6.00;;;;;;;4.35;87.04;101495.58;230856;1195;99063;-75
2021/10/23 20:18:17;;;;;;;8.80;6.00;;;;;;;4.41;87.76;101493.73;230487;1196;112119;-76
2021/10/23 20:23:19;;;;;;;10.80;6.30;;;;;;;4.57;87.63;101502.20;230625;1196;97711;-77
2021/10/23 20:28:20;;;;;;;12.50;7.40;;;;;;;4.71;87.43;101504.74;230667;1196;97665;-78
2021/10/23 20:33:22;;;;;;;8.90;7.80;;;;;;;4.76;87.41;101512.11;230861;1196;108692;-77
2021/10/23 20:38:24;;;;;;;9.60;6.00;;;;;;;4.75;87.56;101523.54;230414;1196;97631;-77
2021/10/23 20:43:25;;;;;;;9.70;6.80;;;;;;;4.77;87.87;101527.63;230589;1196;97740;-75
2021/10/23 20:48:27;;;;;;;10.40;6.90;;;;;;;4.84;88.37;101540.51;230442;1196;99107;-78
2021/10/23 20:53:29;;;;;;;9.30;6.20;;;;;;;4.88;88.17;101547.91;230888;1196;98256;-76
2021/10/23 20:58:30;;;;;;;12.90;8.70;;;;;;;4.93;88.18;101555.16;230677;1195;99001;-79
2021/10/23 21:03:32;;;;;;;9.70;6.40;;;;;;;5.00;88.39;101559.11;231254;1196;98261;-79
2021/10/23 21:08:34;;;;;;;11.50;6.20;;;;;;;4.95;88.32;101565.53;231015;1196;99170;-74
2021/10/23 21:13:36;;;;;;;11.80;6.60;;;;;;;5.11;87.93;101570.19;230742;1196;98070;-75
2021/10/23 21:18:37;;;;;;;10.10;6.80;;;;;;;5.15;86.91;101577.82;232026;1196;99076;-78
2021/10/23 21:23:44;;;;;;;8.30;6.60;;;;;;;4.97;87.53;101591.06;231112;1196;99076;-77
2021/10/23 21:28:46;;;;;;;14.70;9.30;;;;;;;4.99;87.55;101591.34;230571;1196;98652;-77
2021/10/23 21:33:48;;;;;;;14.00;8.90;;;;;;;4.97;87.62;101598.78;231359;1196;97659;-77
2021/10/23 21:38:50;;;;;;;11.00;7.20;;;;;;;4.92;87.98;101613.55;230502;1196;97623;-77
2021/10/23 21:43:52;;;;;;;11.30;7.20;;;;;;;4.96;87.83;101622.93;230570;1196;103133;-77
2021/10/23 21:48:53;;;;;;;9.70;6.50;;;;;;;4.90;88.23;101629.39;230631;1196;97633;-76
2021/10/23 21:53:55;;;;;;;10.40;8.30;;;;;;;4.93;88.36;101632.56;230643;1196;99003;-76
2021/10/23 21:58:57;;;;;;;9.90;6.80;;;;;;;4.93;88.19;101638.28;230564;1196;98128;-75
2021/10/23 22:03:59;;;;;;;10.80;7.80;;;;;;;4.92;88.24;101655.27;230898;1196;97608;-77
2021/10/23 22:09:03;;;;;;;11.60;7.60;;;;;;;4.87;88.15;101661.15;231393;1196;97615;-77
2021/10/23 22:14:05;;;;;;;10.60;7.60;;;;;;;4.80;88.41;101660.84;231201;1195;112118;-76
2021/10/23 22:19:07;;;;;;;10.30;7.30;;;;;;;4.82;88.73;101660.91;231022;1195;99117;-76
2021/10/23 22:24:08;;;;;;;9.50;6.70;;;;;;;4.88;88.16;101658.64;230640;1196;97676;-75
2021/10/23 22:29:10;;;;;;;12.10;7.00;;;;;;;4.84;87.72;101648.60;230952;1195;108982;-77
2021/10/23 22:34:12;;;;;;;9.50;6.80;;;;;;;4.78;87.60;101656.60;230860;1190;97675;-77
2021/10/23 22:39:14;;;;;;;11.70;8.80;;;;;;;4.65;87.51;101660.08;230931;1196;97651;-81
2021/10/23 22:44:17;;;;;;;10.20;7.40;;;;;;;4.55;88.10;101665.52;230493;1196;97732;-78
2021/10/23 22:49:19;;;;;;;11.30;6.80;;;;;;;4.52;87.94;101662.73;230938;1196;97630;-78
2021/10/23 22:54:21;;;;;;;10.30;6.90;;;;;;;4.53;87.72;101667.56;230964;1196;97702;-76
2021/10/23 22:59:23;;;;;;;12.60;7.70;;;;;;;4.50;87.58;101671.39;230867;1195;103232;-77
2021/10/23 23:04:24;;;;;;;12.30;8.80;;;;;;;4.33;87.53;101679.42;230554;1196;99043;-76
2021/10/23 23:09:26;;;;;;;18.30;12.00;;;;;;;4.19;87.91;101689.80;230709;1195;97713;-76
2021/10/23 23:14:28;;;;;;;16.60;9.60;;;;;;;4.11;88.61;101704.67;230872;1196;98974;-76
2021/10/23 23:19:30;;;;;;;12.40;8.40;;;;;;;4.11;88.70;101708.65;230961;1196;99155;-76
2021/10/23 23:24:31;;;;;;;12.70;8.90;;;;;;;4.13;88.68;101710.30;230560;1196;98565;-75
2021/10/23 23:29:33;;;;;;;10.10;8.10;;;;;;;4.11;88.51;101714.08;230874;1196;112273;-76